createdAt,value
2022-11-30T00:00:16.016Z,3.8
2022-11-30T00:05:14.183Z,3.8
2022-11-30T00:10:12.377Z,3.9
2022-11-30T00:15:10.541Z,3.9
2022-11-30T00:20:08.815Z,3.8
2022-11-30T00:25:07.236Z,3.8
2022-11-30T00:30:05.468Z,3.8
2022-11-30T00:35:03.578Z,3.8
2022-11-30T00:40:01.938Z,3.7
2022-11-30T00:45:00.019Z,3.8
2022-11-30T00:49:58.361Z,3.7
2022-11-30T00:54:56.521Z,3.7
2022-11-30T00:59:54.866Z,3.8
2022-11-30T01:04:53.051Z,3.7
2022-11-30T01:09:51.382Z,3.7
2022-11-30T01:14:49.672Z,3.7
2022-11-30T01:19:47.755Z,3.7
2022-11-30T01:24:46.206Z,3.6
2022-11-30T01:29:44.353Z,3.7
2022-11-30T01:34:42.547Z,3.6
2022-11-30T01:39:40.910Z,3.6
2022-11-30T01:44:39.265Z,3.6
2022-11-30T01:49:37.718Z,3.5
2022-11-30T01:54:35.923Z,3.6
2022-11-30T01:59:34.039Z,3.6
2022-11-30T02:04:32.225Z,3.7
2022-11-30T02:09:30.379Z,3.7
2022-11-30T02:14:28.407Z,3.7
2022-11-30T02:19:26.790Z,3.7
2022-11-30T02:24:25.049Z,3.7
2022-11-30T02:29:23.249Z,3.7
2022-11-30T02:34:21.302Z,3.7
2022-11-30T02:39:19.676Z,3.7
2022-11-30T02:44:18.022Z,3.7
2022-11-30T02:49:16.313Z,3.8
2022-11-30T02:54:14.431Z,3.8
2022-11-30T02:59:12.700Z,3.8
2022-11-30T03:04:11.123Z,3.8
2022-11-30T03:09:09.456Z,3.8
2022-11-30T03:14:07.457Z,3.8
2022-11-30T03:19:05.899Z,3.8
2022-11-30T03:24:04.250Z,3.8
2022-11-30T03:29:02.472Z,3.7
2022-11-30T03:34:00.636Z,3.9
2022-11-30T03:38:58.940Z,3.9
2022-11-30T03:43:56.999Z,3.9
2022-11-30T03:48:55.224Z,3.9
2022-11-30T03:53:53.476Z,3.9
2022-11-30T03:58:51.763Z,3.9
2022-11-30T04:03:49.878Z,3.8
2022-11-30T04:08:48.244Z,3.8
2022-11-30T04:13:46.217Z,3.7
2022-11-30T04:18:44.403Z,3.7
2022-11-30T04:23:42.729Z,3.7
2022-11-30T04:28:41.057Z,3.7
2022-11-30T04:33:39.246Z,3.7
2022-11-30T04:38:37.475Z,3.7
2022-11-30T04:43:35.740Z,3.7
2022-11-30T04:48:33.879Z,3.7
2022-11-30T04:53:32.048Z,3.7
2022-11-30T04:58:30.231Z,3.7
2022-11-30T05:03:28.439Z,3.8
2022-11-30T05:08:26.725Z,3.8
2022-11-30T05:13:25.143Z,3.9
2022-11-30T05:18:23.329Z,3.8
2022-11-30T05:23:21.728Z,3.8
2022-11-30T05:28:20.053Z,3.9
2022-11-30T05:33:18.200Z,3.9
2022-11-30T05:38:16.402Z,4
2022-11-30T05:43:14.687Z,4
2022-11-30T05:48:12.907Z,4.1
2022-11-30T05:53:11.278Z,4.2
2022-11-30T05:58:09.564Z,4.3
2022-11-30T06:03:08.527Z,4.5
2022-11-30T06:08:06.917Z,4.8
2022-11-30T06:13:05.173Z,5
2022-11-30T06:18:03.688Z,5.4
2022-11-30T06:23:02.524Z,6
2022-11-30T06:28:01.171Z,6.3
2022-11-30T06:32:59.595Z,6.3
2022-11-30T06:37:57.717Z,6.2
2022-11-30T06:42:55.742Z,6
2022-11-30T06:47:54.162Z,6
2022-11-30T06:52:52.766Z,6.5
2022-11-30T06:57:51.253Z,6.8
2022-11-30T07:02:49.838Z,6.9
2022-11-30T07:07:48.167Z,7
2022-11-30T07:12:46.268Z,6.9
2022-11-30T07:17:44.326Z,6.9
2022-11-30T07:22:42.744Z,7
2022-11-30T07:27:41.353Z,7.3
2022-11-30T07:32:39.978Z,7.8
2022-11-30T07:37:38.254Z,8.1
2022-11-30T07:42:36.617Z,8.4
2022-11-30T07:47:35.151Z,8.7
2022-11-30T07:52:33.836Z,9.1
2022-11-30T07:57:32.163Z,9.2
2022-11-30T08:02:30.515Z,9.1
2022-11-30T08:07:28.824Z,8.9
2022-11-30T08:12:26.941Z,8.7
2022-11-30T08:17:25.299Z,8.6
2022-11-30T08:22:23.765Z,8.9
2022-11-30T08:27:22.394Z,9.1
2022-11-30T08:32:20.898Z,9.4
2022-11-30T08:37:19.514Z,9.9
2022-11-30T08:42:18.085Z,10.5
2022-11-30T08:47:16.971Z,11.4
2022-11-30T08:52:17.802Z,12.4
2022-11-30T08:57:15.537Z,13.9
2022-11-30T09:02:15.186Z,14.5
2022-11-30T09:07:13.439Z,14.6
2022-11-30T09:12:10.997Z,13.7
2022-11-30T09:17:08.818Z,13.5
2022-11-30T09:22:07.020Z,13.8
2022-11-30T09:27:05.570Z,14
2022-11-30T09:32:03.686Z,13.7
2022-11-30T09:37:01.474Z,13.1
2022-11-30T09:41:59.269Z,13
2022-11-30T09:46:57.560Z,12.9
2022-11-30T09:51:55.750Z,13.1
2022-11-30T09:56:54.390Z,13.3
2022-11-30T10:01:56.812Z,12.7
2022-11-30T10:06:50.717Z,12.4
2022-11-30T10:11:48.913Z,12.7
2022-11-30T10:16:47.168Z,12.8
2022-11-30T10:21:46.047Z,13
2022-11-30T10:26:44.085Z,13
2022-11-30T10:31:42.039Z,12.3
2022-11-30T10:36:39.565Z,11.6
2022-11-30T10:41:37.284Z,11.4
2022-11-30T10:46:35.612Z,11.5
2022-11-30T10:51:33.919Z,11.7
2022-11-30T10:56:32.516Z,12.1
2022-11-30T11:01:31.830Z,12.9
2022-11-30T11:06:30.708Z,12.9
2022-11-30T11:11:28.955Z,12.8
2022-11-30T11:16:26.799Z,12.5
2022-11-30T13:04:43.658Z,11
2022-11-30T13:09:41.868Z,11.1
2022-11-30T13:14:40.142Z,10.8
2022-11-30T13:19:38.141Z,10.7
2022-11-30T13:24:36.354Z,10.5
2022-11-30T13:29:34.712Z,10.6
2022-11-30T13:34:32.770Z,10.5
2022-11-30T13:39:30.926Z,10.1
2022-11-30T13:44:28.997Z,9.9
2022-11-30T13:49:26.881Z,9.6
2022-11-30T13:54:27.889Z,9.3
2022-11-30T13:59:23.047Z,9
2022-11-30T14:04:21.085Z,8.8
2022-11-30T14:09:19.033Z,8.6
2022-11-30T14:14:16.947Z,8.3
2022-11-30T14:19:14.779Z,8.1
2022-11-30T14:24:12.959Z,7.8
2022-11-30T14:29:11.025Z,7.5
2022-11-30T14:34:09.111Z,7.5
2022-11-30T14:39:07.073Z,7.2
2022-11-30T14:44:05.160Z,7.1
2022-11-30T14:49:03.271Z,7
2022-11-30T14:54:01.250Z,6.8
2022-11-30T14:58:59.408Z,6.8
2022-11-30T15:03:57.396Z,6.4
2022-11-30T15:08:55.276Z,6.1
2022-11-30T15:13:53.349Z,5.9
2022-11-30T15:18:51.376Z,5.7
2022-11-30T15:23:51.512Z,5.6
2022-11-30T15:28:47.811Z,5.4
2022-11-30T15:33:46.226Z,5.4
2022-11-30T15:38:44.912Z,5.3
2022-11-30T15:43:43.212Z,5.2
2022-11-30T15:48:41.431Z,5.2
2022-11-30T15:53:39.543Z,4.9
2022-11-30T15:58:37.708Z,4.9
2022-11-30T16:03:36.811Z,5
2022-11-30T16:08:34.894Z,4.9
2022-11-30T16:13:33.139Z,4.9
2022-11-30T16:18:31.162Z,4.9
2022-11-30T16:23:29.257Z,4.9
2022-11-30T16:28:27.457Z,4.9
2022-11-30T16:33:25.733Z,4.9
2022-11-30T16:38:24.028Z,4.8
2022-11-30T16:43:22.242Z,4.7
2022-11-30T16:48:20.478Z,4.8
2022-11-30T16:53:18.755Z,4.8
2022-11-30T16:58:16.884Z,4.8
2022-11-30T17:03:15.068Z,4.7
2022-11-30T17:08:13.130Z,4.7
2022-11-30T17:13:11.265Z,4.7
2022-11-30T17:18:10.152Z,4.7
2022-11-30T17:23:08.446Z,4.7
2022-11-30T17:28:06.746Z,4.7
2022-11-30T17:33:05.025Z,4.6
2022-11-30T17:38:03.179Z,4.6
2022-11-30T17:43:01.434Z,4.4
2022-11-30T17:47:59.686Z,4.4
2022-11-30T17:52:57.906Z,4.3
2022-11-30T17:57:56.173Z,4.3
2022-11-30T18:02:54.599Z,4.4
2022-11-30T18:07:52.821Z,4.3
2022-11-30T18:12:50.966Z,4.3
2022-11-30T18:17:49.262Z,4.3
2022-11-30T18:22:47.625Z,3.5
2022-11-30T18:27:45.957Z,4.3
2022-11-30T18:32:44.353Z,4.2
2022-11-30T18:37:42.783Z,4.3
2022-11-30T18:42:41.108Z,4.2
2022-11-30T18:47:39.484Z,4.2
2022-11-30T18:52:38.050Z,4.2
2022-11-30T18:57:36.723Z,4.2
2022-11-30T19:02:35.061Z,4.2
2022-11-30T19:07:33.206Z,4
2022-11-30T19:12:31.595Z,4.1
2022-11-30T19:17:30.492Z,4.1
2022-11-30T19:22:28.656Z,4.1
2022-11-30T19:27:26.959Z,4
2022-11-30T19:32:25.406Z,4.1
2022-11-30T19:37:23.643Z,4.1
2022-11-30T19:42:21.966Z,4.1
2022-11-30T19:47:20.204Z,4.1
2022-11-30T19:52:18.488Z,4.1
2022-11-30T19:57:16.648Z,4
2022-11-30T20:02:14.908Z,4
2022-11-30T20:07:12.975Z,3.9
2022-11-30T20:12:11.176Z,3.8
2022-11-30T20:17:09.622Z,3.8
2022-11-30T20:22:08.054Z,3.8
2022-11-30T20:27:06.240Z,3.8
2022-11-30T20:32:04.423Z,3.8
2022-11-30T20:37:02.693Z,3.8
2022-11-30T20:42:00.862Z,3.8
2022-11-30T20:46:59.129Z,3.8
2022-11-30T20:51:57.347Z,3.8
2022-11-30T20:56:55.518Z,3.8
2022-11-30T21:01:53.754Z,3.7
2022-11-30T21:06:51.986Z,3.7
2022-11-30T21:11:50.262Z,3.7
2022-11-30T21:16:48.583Z,3.7
2022-11-30T21:21:46.866Z,3.7
2022-11-30T21:26:45.151Z,3.6
2022-11-30T21:31:43.433Z,3.5
2022-11-30T21:36:41.575Z,3.5
2022-11-30T21:41:39.758Z,3.5
2022-11-30T21:46:37.842Z,3.4
2022-11-30T21:51:35.941Z,3.4
2022-11-30T21:56:34.122Z,3.2
2022-11-30T22:01:32.367Z,3.1
2022-11-30T22:06:30.667Z,3.1
2022-11-30T22:11:28.879Z,3.3
2022-11-30T22:16:30.043Z,3.2
2022-11-30T22:21:25.274Z,3.2
2022-11-30T22:26:23.434Z,3.2
2022-11-30T22:31:21.730Z,3.2
2022-11-30T22:36:19.987Z,3.2
2022-11-30T22:41:18.339Z,3.3
2022-11-30T22:46:16.593Z,3.4
2022-11-30T22:51:14.726Z,3.4
2022-11-30T22:56:13.085Z,3.5
2022-11-30T23:01:11.194Z,3.5
2022-11-30T23:06:09.229Z,3.5
2022-11-30T23:11:07.943Z,3.5
2022-11-30T23:16:06.306Z,3.5
2022-11-30T23:21:04.369Z,3.3
2022-11-30T23:26:02.651Z,3.3
2022-11-30T23:30:58.830Z,3.4
2022-11-30T23:35:56.942Z,3.3
2022-11-30T23:40:55.079Z,3.4
2022-11-30T23:45:53.415Z,3.3
2022-11-30T23:50:51.465Z,3.2
2022-11-30T23:55:49.588Z,3.3
